sensor_id;sensor_type;location;lat;lon;timestamp;P1;durP1;ratioP1;P2;durP2;ratioP2
46713;SDS011;32445;51.376;10.874;2024-01-25T00:04:57;19.10;;;3.40;;
46713;SDS011;32445;51.376;10.874;2024-01-25T00:09:57;21.13;;;3.43;;
46713;SDS011;32445;51.376;10.874;2024-01-25T00:14:57;18.03;;;2.93;;
46713;SDS011;32445;51.376;10.874;2024-01-25T00:19:58;16.90;;;3.87;;
46713;SDS011;32445;51.376;10.874;2024-01-25T00:24:58;21.90;;;3.83;;
46713;SDS011;32445;51.376;10.874;2024-01-25T00:29:59;18.52;;;3.00;;
46713;SDS011;32445;51.376;10.874;2024-01-25T00:35:00;15.77;;;3.30;;
46713;SDS011;32445;51.376;10.874;2024-01-25T00:40:01;20.40;;;3.25;;
46713;SDS011;32445;51.376;10.874;2024-01-25T00:45:01;21.38;;;3.97;;
46713;SDS011;32445;51.376;10.874;2024-01-25T00:50:02;17.73;;;3.65;;
46713;SDS011;32445;51.376;10.874;2024-01-25T00:55:03;20.25;;;3.22;;
46713;SDS011;32445;51.376;10.874;2024-01-25T01:00:04;18.17;;;3.97;;
46713;SDS011;32445;51.376;10.874;2024-01-25T01:05:05;16.50;;;3.75;;
46713;SDS011;32445;51.376;10.874;2024-01-25T01:10:07;10.82;;;2.85;;
46713;SDS011;32445;51.376;10.874;2024-01-25T01:15:08;11.68;;;3.58;;
46713;SDS011;32445;51.376;10.874;2024-01-25T01:20:09;15.95;;;3.90;;
46713;SDS011;32445;51.376;10.874;2024-01-25T01:25:10;15.95;;;3.55;;
46713;SDS011;32445;51.376;10.874;2024-01-25T01:30:10;15.30;;;4.15;;
46713;SDS011;32445;51.376;10.874;2024-01-25T01:35:11;15.98;;;3.00;;
46713;SDS011;32445;51.376;10.874;2024-01-25T01:40:12;15.93;;;3.03;;
46713;SDS011;32445;51.376;10.874;2024-01-25T01:45:12;17.33;;;3.15;;
46713;SDS011;32445;51.376;10.874;2024-01-25T01:50:13;24.70;;;3.20;;
46713;SDS011;32445;51.376;10.874;2024-01-25T01:55:13;22.83;;;3.67;;
46713;SDS011;32445;51.376;10.874;2024-01-25T02:00:14;19.30;;;5.00;;
46713;SDS011;32445;51.376;10.874;2024-01-25T02:05:16;19.58;;;6.18;;
46713;SDS011;32445;51.376;10.874;2024-01-25T02:10:17;22.13;;;3.40;;
46713;SDS011;32445;51.376;10.874;2024-01-25T02:15:17;24.90;;;5.53;;
46713;SDS011;32445;51.376;10.874;2024-01-25T02:20:18;17.80;;;4.90;;
46713;SDS011;32445;51.376;10.874;2024-01-25T02:25:19;22.53;;;3.37;;
46713;SDS011;32445;51.376;10.874;2024-01-25T02:30:19;16.63;;;3.30;;
46713;SDS011;32445;51.376;10.874;2024-01-25T02:35:20;24.43;;;3.47;;
46713;SDS011;32445;51.376;10.874;2024-01-25T02:40:20;23.17;;;4.23;;
46713;SDS011;32445;51.376;10.874;2024-01-25T02:45:20;16.43;;;3.50;;
46713;SDS011;32445;51.376;10.874;2024-01-25T02:50:21;21.08;;;3.35;;
46713;SDS011;32445;51.376;10.874;2024-01-25T02:55:21;19.30;;;2.73;;
46713;SDS011;32445;51.376;10.874;2024-01-25T03:00:22;22.48;;;3.85;;
46713;SDS011;32445;51.376;10.874;2024-01-25T03:05:22;17.63;;;3.15;;
46713;SDS011;32445;51.376;10.874;2024-01-25T03:10:23;17.27;;;4.37;;
46713;SDS011;32445;51.376;10.874;2024-01-25T03:15:23;15.93;;;3.57;;
46713;SDS011;32445;51.376;10.874;2024-01-25T03:20:24;27.30;;;3.40;;
46713;SDS011;32445;51.376;10.874;2024-01-25T03:25:24;13.20;;;2.43;;
46713;SDS011;32445;51.376;10.874;2024-01-25T03:30:24;15.97;;;3.40;;
46713;SDS011;32445;51.376;10.874;2024-01-25T03:35:25;22.33;;;4.00;;
46713;SDS011;32445;51.376;10.874;2024-01-25T03:40:25;14.33;;;2.90;;
46713;SDS011;32445;51.376;10.874;2024-01-25T03:45:25;20.90;;;3.73;;
46713;SDS011;32445;51.376;10.874;2024-01-25T03:50:33;18.42;;;4.03;;
46713;SDS011;32445;51.376;10.874;2024-01-25T03:55:33;22.33;;;3.25;;
46713;SDS011;32445;51.376;10.874;2024-01-25T04:00:33;18.47;;;3.33;;
46713;SDS011;32445;51.376;10.874;2024-01-25T04:05:35;16.52;;;4.13;;
46713;SDS011;32445;51.376;10.874;2024-01-25T04:10:35;17.73;;;3.33;;
46713;SDS011;32445;51.376;10.874;2024-01-25T04:15:35;19.10;;;4.28;;
46713;SDS011;32445;51.376;10.874;2024-01-25T04:20:36;12.00;;;2.50;;
46713;SDS011;32445;51.376;10.874;2024-01-25T04:25:36;12.30;;;2.87;;
46713;SDS011;32445;51.376;10.874;2024-01-25T04:30:37;21.43;;;3.23;;
46713;SDS011;32445;51.376;10.874;2024-01-25T04:35:37;19.80;;;2.40;;
46713;SDS011;32445;51.376;10.874;2024-01-25T04:40:38;21.73;;;3.93;;
46713;SDS011;32445;51.376;10.874;2024-01-25T04:45:38;15.30;;;3.23;;
46713;SDS011;32445;51.376;10.874;2024-01-25T04:50:38;15.63;;;2.90;;
46713;SDS011;32445;51.376;10.874;2024-01-25T04:55:39;15.73;;;2.58;;
46713;SDS011;32445;51.376;10.874;2024-01-25T05:00:39;18.43;;;3.07;;
46713;SDS011;32445;51.376;10.874;2024-01-25T05:05:40;13.33;;;2.83;;
46713;SDS011;32445;51.376;10.874;2024-01-25T05:10:40;12.70;;;2.87;;
46713;SDS011;32445;51.376;10.874;2024-01-25T05:15:40;19.43;;;3.77;;
46713;SDS011;32445;51.376;10.874;2024-01-25T05:20:41;17.42;;;2.40;;
46713;SDS011;32445;51.376;10.874;2024-01-25T05:25:41;13.95;;;3.28;;
46713;SDS011;32445;51.376;10.874;2024-01-25T05:30:42;17.93;;;4.53;;
46713;SDS011;32445;51.376;10.874;2024-01-25T05:35:42;15.37;;;3.83;;
46713;SDS011;32445;51.376;10.874;2024-01-25T05:40:42;16.03;;;3.67;;
46713;SDS011;32445;51.376;10.874;2024-01-25T05:45:43;16.20;;;3.80;;
46713;SDS011;32445;51.376;10.874;2024-01-25T05:50:43;12.33;;;3.27;;
46713;SDS011;32445;51.376;10.874;2024-01-25T05:55:44;16.30;;;3.63;;
46713;SDS011;32445;51.376;10.874;2024-01-25T06:00:44;25.63;;;4.07;;
46713;SDS011;32445;51.376;10.874;2024-01-25T06:05:45;18.17;;;3.83;;
46713;SDS011;32445;51.376;10.874;2024-01-25T06:10:45;15.52;;;2.78;;
46713;SDS011;32445;51.376;10.874;2024-01-25T06:15:46;11.47;;;2.30;;
46713;SDS011;32445;51.376;10.874;2024-01-25T06:20:46;12.00;;;2.80;;
46713;SDS011;32445;51.376;10.874;2024-01-25T06:25:46;9.63;;;3.47;;
46713;SDS011;32445;51.376;10.874;2024-01-25T06:30:47;20.47;;;3.53;;
46713;SDS011;32445;51.376;10.874;2024-01-25T06:35:47;18.10;;;3.83;;
46713;SDS011;32445;51.376;10.874;2024-01-25T06:40:48;11.27;;;2.83;;
46713;SDS011;32445;51.376;10.874;2024-01-25T06:45:48;16.67;;;3.23;;
46713;SDS011;32445;51.376;10.874;2024-01-25T06:50:48;11.80;;;3.37;;
46713;SDS011;32445;51.376;10.874;2024-01-25T06:55:50;12.50;;;2.10;;
46713;SDS011;32445;51.376;10.874;2024-01-25T07:00:50;12.13;;;2.33;;
46713;SDS011;32445;51.376;10.874;2024-01-25T07:05:52;16.58;;;2.88;;
46713;SDS011;32445;51.376;10.874;2024-01-25T07:10:53;10.33;;;2.60;;
46713;SDS011;32445;51.376;10.874;2024-01-25T07:15:53;14.50;;;2.70;;
46713;SDS011;32445;51.376;10.874;2024-01-25T07:20:53;17.90;;;3.27;;
46713;SDS011;32445;51.376;10.874;2024-01-25T07:25:54;9.43;;;1.80;;
46713;SDS011;32445;51.376;10.874;2024-01-25T07:30:54;11.43;;;2.63;;
46713;SDS011;32445;51.376;10.874;2024-01-25T07:35:54;11.80;;;2.20;;
46713;SDS011;32445;51.376;10.874;2024-01-25T07:40:58;12.38;;;2.63;;
46713;SDS011;32445;51.376;10.874;2024-01-25T07:45:58;8.73;;;2.77;;
46713;SDS011;32445;51.376;10.874;2024-01-25T07:50:59;10.83;;;2.03;;
46713;SDS011;32445;51.376;10.874;2024-01-25T07:55:59;12.40;;;2.40;;
46713;SDS011;32445;51.376;10.874;2024-01-25T08:00:59;14.07;;;3.50;;
46713;SDS011;32445;51.376;10.874;2024-01-25T08:06:09;13.48;;;2.45;;
46713;SDS011;32445;51.376;10.874;2024-01-25T08:11:09;12.07;;;3.50;;
46713;SDS011;32445;51.376;10.874;2024-01-25T08:16:10;11.20;;;2.58;;
46713;SDS011;32445;51.376;10.874;2024-01-25T08:21:13;18.55;;;2.95;;
46713;SDS011;32445;51.376;10.874;2024-01-25T08:26:14;9.40;;;2.63;;
46713;SDS011;32445;51.376;10.874;2024-01-25T08:31:14;7.20;;;2.03;;
46713;SDS011;32445;51.376;10.874;2024-01-25T08:36:18;11.87;;;2.93;;
46713;SDS011;32445;51.376;10.874;2024-01-25T08:41:18;13.55;;;2.90;;
46713;SDS011;32445;51.376;10.874;2024-01-25T08:46:19;8.30;;;2.37;;
46713;SDS011;32445;51.376;10.874;2024-01-25T08:51:19;11.77;;;2.23;;
46713;SDS011;32445;51.376;10.874;2024-01-25T08:56:19;14.17;;;2.80;;
46713;SDS011;32445;51.376;10.874;2024-01-25T09:01:20;9.00;;;2.30;;
46713;SDS011;32445;51.376;10.874;2024-01-25T09:06:20;13.43;;;3.07;;
46713;SDS011;32445;51.376;10.874;2024-01-25T09:11:21;11.02;;;2.35;;
46713;SDS011;32445;51.376;10.874;2024-01-25T09:16:22;10.43;;;2.13;;
46713;SDS011;32445;51.376;10.874;2024-01-25T09:21:22;11.80;;;2.17;;
46713;SDS011;32445;51.376;10.874;2024-01-25T09:26:23;6.30;;;1.77;;
46713;SDS011;32445;51.376;10.874;2024-01-25T09:31:23;10.13;;;2.40;;
46713;SDS011;32445;51.376;10.874;2024-01-25T09:36:24;11.68;;;2.65;;
46713;SDS011;32445;51.376;10.874;2024-01-25T09:41:24;7.72;;;1.90;;
46713;SDS011;32445;51.376;10.874;2024-01-25T09:46:25;12.97;;;2.17;;
46713;SDS011;32445;51.376;10.874;2024-01-25T09:51:26;9.73;;;2.63;;
46713;SDS011;32445;51.376;10.874;2024-01-25T09:56:27;14.88;;;3.05;;
46713;SDS011;32445;51.376;10.874;2024-01-25T10:01:31;18.70;;;3.13;;
46713;SDS011;32445;51.376;10.874;2024-01-25T10:06:31;15.10;;;2.50;;
46713;SDS011;32445;51.376;10.874;2024-01-25T10:11:34;9.17;;;2.63;;
46713;SDS011;32445;51.376;10.874;2024-01-25T10:16:35;10.15;;;2.40;;
46713;SDS011;32445;51.376;10.874;2024-01-25T10:21:36;10.40;;;2.03;;
46713;SDS011;32445;51.376;10.874;2024-01-25T10:26:36;9.23;;;2.10;;
46713;SDS011;32445;51.376;10.874;2024-01-25T10:31:38;12.50;;;2.27;;
46713;SDS011;32445;51.376;10.874;2024-01-25T10:36:40;12.48;;;2.75;;
46713;SDS011;32445;51.376;10.874;2024-01-25T10:41:41;7.32;;;2.40;;
46713;SDS011;32445;51.376;10.874;2024-01-25T10:46:48;12.50;;;3.13;;
46713;SDS011;32445;51.376;10.874;2024-01-25T10:51:49;14.07;;;2.92;;
46713;SDS011;32445;51.376;10.874;2024-01-25T10:56:49;12.90;;;2.65;;
46713;SDS011;32445;51.376;10.874;2024-01-25T11:01:54;13.15;;;3.60;;
46713;SDS011;32445;51.376;10.874;2024-01-25T11:06:54;12.27;;;2.40;;
46713;SDS011;32445;51.376;10.874;2024-01-25T11:12:12;8.60;;;3.42;;
46713;SDS011;32445;51.376;10.874;2024-01-25T11:17:19;9.80;;;2.75;;
46713;SDS011;32445;51.376;10.874;2024-01-25T11:22:20;8.63;;;2.30;;
46713;SDS011;32445;51.376;10.874;2024-01-25T11:27:21;12.00;;;1.90;;
46713;SDS011;32445;51.376;10.874;2024-01-25T11:32:21;8.77;;;2.60;;
46713;SDS011;32445;51.376;10.874;2024-01-25T11:37:22;10.30;;;2.55;;
46713;SDS011;32445;51.376;10.874;2024-01-25T11:42:31;10.95;;;2.28;;
46713;SDS011;32445;51.376;10.874;2024-01-25T11:47:31;12.23;;;1.90;;
46713;SDS011;32445;51.376;10.874;2024-01-25T11:52:32;9.10;;;2.63;;
46713;SDS011;32445;51.376;10.874;2024-01-25T11:57:40;10.30;;;2.20;;
46713;SDS011;32445;51.376;10.874;2024-01-25T12:02:41;8.68;;;1.67;;
46713;SDS011;32445;51.376;10.874;2024-01-25T12:07:42;9.65;;;2.17;;
46713;SDS011;32445;51.376;10.874;2024-01-25T12:12:43;13.87;;;2.73;;
46713;SDS011;32445;51.376;10.874;2024-01-25T12:17:43;6.05;;;1.35;;
46713;SDS011;32445;51.376;10.874;2024-01-25T12:22:44;10.70;;;2.03;;
46713;SDS011;32445;51.376;10.874;2024-01-25T12:27:48;11.15;;;2.25;;
46713;SDS011;32445;51.376;10.874;2024-01-25T12:32:51;6.60;;;2.25;;
46713;SDS011;32445;51.376;10.874;2024-01-25T12:37:52;15.00;;;2.53;;
46713;SDS011;32445;51.376;10.874;2024-01-25T12:42:52;6.25;;;2.20;;
46713;SDS011;32445;51.376;10.874;2024-01-25T12:47:53;13.23;;;2.03;;
46713;SDS011;32445;51.376;10.874;2024-01-25T12:52:53;11.63;;;2.40;;
46713;SDS011;32445;51.376;10.874;2024-01-25T12:57:54;8.83;;;2.43;;
46713;SDS011;32445;51.376;10.874;2024-01-25T13:02:54;10.30;;;2.85;;
46713;SDS011;32445;51.376;10.874;2024-01-25T13:07:57;12.20;;;2.83;;
46713;SDS011;32445;51.376;10.874;2024-01-25T13:12:58;16.15;;;3.70;;
46713;SDS011;32445;51.376;10.874;2024-01-25T13:17:59;12.20;;;3.03;;
46713;SDS011;32445;51.376;10.874;2024-01-25T13:23:01;16.23;;;3.72;;
46713;SDS011;32445;51.376;10.874;2024-01-25T13:28:01;9.27;;;2.80;;
46713;SDS011;32445;51.376;10.874;2024-01-25T13:33:01;14.87;;;2.13;;
46713;SDS011;32445;51.376;10.874;2024-01-25T13:38:02;9.20;;;2.70;;
46713;SDS011;32445;51.376;10.874;2024-01-25T13:43:02;10.82;;;3.33;;
46713;SDS011;32445;51.376;10.874;2024-01-25T13:48:03;13.87;;;3.40;;
46713;SDS011;32445;51.376;10.874;2024-01-25T13:53:04;12.98;;;3.05;;
46713;SDS011;32445;51.376;10.874;2024-01-25T13:58:04;15.18;;;3.28;;
46713;SDS011;32445;51.376;10.874;2024-01-25T14:03:04;20.47;;;3.47;;
46713;SDS011;32445;51.376;10.874;2024-01-25T14:08:05;12.67;;;4.03;;
46713;SDS011;32445;51.376;10.874;2024-01-25T14:13:05;10.50;;;3.30;;
46713;SDS011;32445;51.376;10.874;2024-01-25T14:18:06;15.50;;;4.27;;
46713;SDS011;32445;51.376;10.874;2024-01-25T14:23:06;8.17;;;2.50;;
46713;SDS011;32445;51.376;10.874;2024-01-25T14:28:07;11.73;;;2.87;;
46713;SDS011;32445;51.376;10.874;2024-01-25T14:33:07;15.27;;;3.00;;
46713;SDS011;32445;51.376;10.874;2024-01-25T14:38:07;11.73;;;3.03;;
46713;SDS011;32445;51.376;10.874;2024-01-25T14:43:08;20.73;;;3.65;;
46713;SDS011;32445;51.376;10.874;2024-01-25T14:48:09;13.23;;;3.27;;
46713;SDS011;32445;51.376;10.874;2024-01-25T14:53:09;11.13;;;3.20;;
46713;SDS011;32445;51.376;10.874;2024-01-25T14:58:10;10.50;;;3.10;;
46713;SDS011;32445;51.376;10.874;2024-01-25T15:03:10;12.17;;;3.77;;
46713;SDS011;32445;51.376;10.874;2024-01-25T15:08:13;10.10;;;3.10;;
46713;SDS011;32445;51.376;10.874;2024-01-25T15:13:22;13.88;;;2.83;;
46713;SDS011;32445;51.376;10.874;2024-01-25T15:18:22;12.35;;;4.45;;
46713;SDS011;32445;51.376;10.874;2024-01-25T15:23:23;9.45;;;4.07;;
46713;SDS011;32445;51.376;10.874;2024-01-25T15:28:23;54.53;;;6.17;;
46713;SDS011;32445;51.376;10.874;2024-01-25T15:33:24;24.67;;;4.13;;
46713;SDS011;32445;51.376;10.874;2024-01-25T15:38:24;10.53;;;3.60;;
46713;SDS011;32445;51.376;10.874;2024-01-25T15:43:24;18.43;;;3.27;;
46713;SDS011;32445;51.376;10.874;2024-01-25T15:48:25;12.70;;;3.03;;
46713;SDS011;32445;51.376;10.874;2024-01-25T15:53:25;10.33;;;3.20;;
46713;SDS011;32445;51.376;10.874;2024-01-25T15:58:26;14.67;;;3.43;;
46713;SDS011;32445;51.376;10.874;2024-01-25T16:03:26;11.23;;;3.83;;
46713;SDS011;32445;51.376;10.874;2024-01-25T16:08:26;9.83;;;3.03;;
46713;SDS011;32445;51.376;10.874;2024-01-25T16:13:27;10.40;;;3.30;;
46713;SDS011;32445;51.376;10.874;2024-01-25T16:18:27;11.77;;;2.67;;
46713;SDS011;32445;51.376;10.874;2024-01-25T16:23:28;9.80;;;2.43;;
46713;SDS011;32445;51.376;10.874;2024-01-25T16:28:28;13.73;;;2.60;;
46713;SDS011;32445;51.376;10.874;2024-01-25T16:33:29;7.00;;;2.22;;
46713;SDS011;32445;51.376;10.874;2024-01-25T16:38:29;13.83;;;2.47;;
46713;SDS011;32445;51.376;10.874;2024-01-25T16:43:29;6.80;;;2.30;;
46713;SDS011;32445;51.376;10.874;2024-01-25T16:48:30;6.80;;;2.30;;
46713;SDS011;32445;51.376;10.874;2024-01-25T16:53:30;11.10;;;2.83;;
46713;SDS011;32445;51.376;10.874;2024-01-25T16:58:30;11.87;;;2.70;;
46713;SDS011;32445;51.376;10.874;2024-01-25T17:03:31;11.13;;;3.10;;
46713;SDS011;32445;51.376;10.874;2024-01-25T17:08:31;8.80;;;3.23;;
46713;SDS011;32445;51.376;10.874;2024-01-25T17:13:31;12.57;;;4.07;;
46713;SDS011;32445;51.376;10.874;2024-01-25T17:18:32;15.23;;;3.23;;
46713;SDS011;32445;51.376;10.874;2024-01-25T17:23:32;10.20;;;3.53;;
46713;SDS011;32445;51.376;10.874;2024-01-25T17:28:33;11.57;;;4.20;;
46713;SDS011;32445;51.376;10.874;2024-01-25T17:33:33;10.43;;;3.33;;
46713;SDS011;32445;51.376;10.874;2024-01-25T17:38:33;8.63;;;4.07;;
46713;SDS011;32445;51.376;10.874;2024-01-25T17:43:34;10.90;;;3.83;;
46713;SDS011;32445;51.376;10.874;2024-01-25T17:48:34;12.40;;;4.57;;
46713;SDS011;32445;51.376;10.874;2024-01-25T17:53:35;11.18;;;4.78;;
46713;SDS011;32445;51.376;10.874;2024-01-25T17:58:35;13.67;;;5.37;;
46713;SDS011;32445;51.376;10.874;2024-01-25T18:03:36;12.00;;;4.47;;
46713;SDS011;32445;51.376;10.874;2024-01-25T18:08:36;9.07;;;3.97;;
46713;SDS011;32445;51.376;10.874;2024-01-25T18:13:36;13.70;;;4.47;;
46713;SDS011;32445;51.376;10.874;2024-01-25T18:18:37;8.13;;;3.90;;
46713;SDS011;32445;51.376;10.874;2024-01-25T18:23:37;17.83;;;4.57;;
46713;SDS011;32445;51.376;10.874;2024-01-25T18:28:39;8.57;;;3.80;;
46713;SDS011;32445;51.376;10.874;2024-01-25T18:33:39;15.03;;;5.27;;
46713;SDS011;32445;51.376;10.874;2024-01-25T18:38:40;17.58;;;6.05;;
46713;SDS011;32445;51.376;10.874;2024-01-25T18:43:41;20.02;;;5.68;;
46713;SDS011;32445;51.376;10.874;2024-01-25T18:48:41;10.33;;;4.47;;
46713;SDS011;32445;51.376;10.874;2024-01-25T18:53:42;16.77;;;5.83;;
46713;SDS011;32445;51.376;10.874;2024-01-25T18:58:42;24.02;;;8.75;;
46713;SDS011;32445;51.376;10.874;2024-01-25T19:03:43;22.08;;;10.35;;
46713;SDS011;32445;51.376;10.874;2024-01-25T19:08:44;20.15;;;8.90;;
46713;SDS011;32445;51.376;10.874;2024-01-25T19:13:45;18.73;;;8.18;;
46713;SDS011;32445;51.376;10.874;2024-01-25T19:18:46;15.80;;;6.13;;
46713;SDS011;32445;51.376;10.874;2024-01-25T19:23:46;23.23;;;7.20;;
46713;SDS011;32445;51.376;10.874;2024-01-25T19:28:46;16.57;;;7.23;;
46713;SDS011;32445;51.376;10.874;2024-01-25T19:33:47;18.03;;;7.30;;
46713;SDS011;32445;51.376;10.874;2024-01-25T19:38:47;15.83;;;6.27;;
46713;SDS011;32445;51.376;10.874;2024-01-25T19:43:48;20.53;;;4.90;;
46713;SDS011;32445;51.376;10.874;2024-01-25T19:48:48;16.67;;;6.67;;
46713;SDS011;32445;51.376;10.874;2024-01-25T19:53:49;14.63;;;5.22;;
46713;SDS011;32445;51.376;10.874;2024-01-25T19:58:49;19.67;;;5.65;;
46713;SDS011;32445;51.376;10.874;2024-01-25T20:03:50;21.77;;;8.20;;
46713;SDS011;32445;51.376;10.874;2024-01-25T20:08:50;24.85;;;5.32;;
46713;SDS011;32445;51.376;10.874;2024-01-25T20:13:51;20.27;;;5.10;;
46713;SDS011;32445;51.376;10.874;2024-01-25T20:18:51;22.07;;;5.20;;
46713;SDS011;32445;51.376;10.874;2024-01-25T20:23:51;20.73;;;5.10;;
46713;SDS011;32445;51.376;10.874;2024-01-25T20:28:52;11.07;;;4.57;;
46713;SDS011;32445;51.376;10.874;2024-01-25T20:33:52;23.10;;;5.03;;
46713;SDS011;32445;51.376;10.874;2024-01-25T20:38:53;20.60;;;5.87;;
46713;SDS011;32445;51.376;10.874;2024-01-25T20:43:53;19.27;;;5.23;;
46713;SDS011;32445;51.376;10.874;2024-01-25T20:48:53;20.93;;;5.23;;
46713;SDS011;32445;51.376;10.874;2024-01-25T20:53:54;20.43;;;6.17;;
46713;SDS011;32445;51.376;10.874;2024-01-25T20:58:54;20.37;;;8.67;;
46713;SDS011;32445;51.376;10.874;2024-01-25T21:03:55;20.67;;;8.77;;
46713;SDS011;32445;51.376;10.874;2024-01-25T21:08:56;19.90;;;9.82;;
46713;SDS011;32445;51.376;10.874;2024-01-25T21:13:56;24.35;;;8.90;;
46713;SDS011;32445;51.376;10.874;2024-01-25T21:18:57;22.10;;;8.23;;
46713;SDS011;32445;51.376;10.874;2024-01-25T21:23:58;18.67;;;7.20;;
46713;SDS011;32445;51.376;10.874;2024-01-25T21:29:11;12.27;;;6.60;;
46713;SDS011;32445;51.376;10.874;2024-01-25T21:34:14;19.73;;;6.97;;
46713;SDS011;32445;51.376;10.874;2024-01-25T21:39:14;21.65;;;7.57;;
46713;SDS011;32445;51.376;10.874;2024-01-25T21:44:15;14.40;;;6.03;;
46713;SDS011;32445;51.376;10.874;2024-01-25T21:49:15;15.13;;;5.40;;
46713;SDS011;32445;51.376;10.874;2024-01-25T21:54:18;14.45;;;5.57;;
46713;SDS011;32445;51.376;10.874;2024-01-25T21:59:18;16.03;;;4.70;;
46713;SDS011;32445;51.376;10.874;2024-01-25T22:04:19;23.83;;;6.13;;
46713;SDS011;32445;51.376;10.874;2024-01-25T22:09:19;18.90;;;4.90;;
46713;SDS011;32445;51.376;10.874;2024-01-25T22:14:20;15.70;;;5.97;;
46713;SDS011;32445;51.376;10.874;2024-01-25T22:19:20;15.67;;;5.53;;
46713;SDS011;32445;51.376;10.874;2024-01-25T22:24:21;15.80;;;6.38;;
46713;SDS011;32445;51.376;10.874;2024-01-25T22:29:21;19.47;;;5.77;;
46713;SDS011;32445;51.376;10.874;2024-01-25T22:34:22;27.07;;;9.87;;
46713;SDS011;32445;51.376;10.874;2024-01-25T22:39:22;16.50;;;5.97;;
46713;SDS011;32445;51.376;10.874;2024-01-25T22:44:22;18.37;;;8.13;;
46713;SDS011;32445;51.376;10.874;2024-01-25T22:49:23;16.57;;;6.10;;
46713;SDS011;32445;51.376;10.874;2024-01-25T22:54:23;20.73;;;10.23;;
46713;SDS011;32445;51.376;10.874;2024-01-25T22:59:23;22.60;;;7.83;;
46713;SDS011;32445;51.376;10.874;2024-01-25T23:04:24;24.27;;;8.93;;
46713;SDS011;32445;51.376;10.874;2024-01-25T23:09:24;35.90;;;13.97;;
46713;SDS011;32445;51.376;10.874;2024-01-25T23:14:24;31.20;;;11.67;;
46713;SDS011;32445;51.376;10.874;2024-01-25T23:19:25;21.10;;;8.13;;
46713;SDS011;32445;51.376;10.874;2024-01-25T23:24:25;17.08;;;5.85;;
46713;SDS011;32445;51.376;10.874;2024-01-25T23:29:26;16.90;;;6.70;;
46713;SDS011;32445;51.376;10.874;2024-01-25T23:34:26;19.50;;;6.28;;
46713;SDS011;32445;51.376;10.874;2024-01-25T23:39:27;13.17;;;5.17;;
46713;SDS011;32445;51.376;10.874;2024-01-25T23:44:27;21.43;;;5.00;;
46713;SDS011;32445;51.376;10.874;2024-01-25T23:49:27;14.10;;;4.77;;
46713;SDS011;32445;51.376;10.874;2024-01-25T23:54:28;20.07;;;5.33;;
46713;SDS011;32445;51.376;10.874;2024-01-25T23:59:28;10.90;;;4.20;;
